Terminal Aerodrome Forecast
Issued by NWS Portland, ME

Home | Current Version | Previous Version | Text Only | Print | Product List | Glossary On
Versions: 1 2 3 4 5 6 7 8 9 10 11 12 13 14 15 16 17 18 19 20 21 22 23
287
FTUS41 KGYX 130547
TAFCON
TAF
KCON 130547Z 1306/1406 17004KT P6SM SCT060 BKN100
     FM131200 30007KT P6SM -SHSN BKN040 BKN080
      TEMPO 1312/1316 32015G25KT 1/2SM SHSN BKN012 OVC020
     FM131600 32017G30KT P6SM SCT050 BKN090
     FM132300 31015G25KT P6SM SCT080 BKN120=

USA.gov is the U.S. government's official web portal to all federal, state and local government web resources and services.